sensor_id;sensor_type;location;lat;lon;timestamp;P1;durP1;ratioP1;P2;durP2;ratioP2
5303;SDS011;2674;49.722;10.892;2023-03-14T00:01:19;1.27;;;0.93;;
5303;SDS011;2674;49.722;10.892;2023-03-14T00:03:45;1.00;;;0.90;;
5303;SDS011;2674;49.722;10.892;2023-03-14T00:06:12;0.80;;;0.80;;
5303;SDS011;2674;49.722;10.892;2023-03-14T00:08:39;0.80;;;0.80;;
5303;SDS011;2674;49.722;10.892;2023-03-14T00:11:08;0.80;;;0.80;;
5303;SDS011;2674;49.722;10.892;2023-03-14T00:13:35;1.10;;;0.80;;
5303;SDS011;2674;49.722;10.892;2023-03-14T00:16:02;0.70;;;0.70;;
5303;SDS011;2674;49.722;10.892;2023-03-14T00:18:33;1.00;;;0.60;;
5303;SDS011;2674;49.722;10.892;2023-03-14T00:20:59;1.13;;;0.90;;
5303;SDS011;2674;49.722;10.892;2023-03-14T00:23:29;0.77;;;0.77;;
5303;SDS011;2674;49.722;10.892;2023-03-14T00:26:00;1.20;;;1.20;;
5303;SDS011;2674;49.722;10.892;2023-03-14T00:28:30;1.17;;;0.80;;
5303;SDS011;2674;49.722;10.892;2023-03-14T00:30:56;2.40;;;0.73;;
5303;SDS011;2674;49.722;10.892;2023-03-14T00:33:23;1.27;;;1.10;;
5303;SDS011;2674;49.722;10.892;2023-03-14T00:36:02;1.13;;;1.13;;
5303;SDS011;2674;49.722;10.892;2023-03-14T00:38:30;0.80;;;0.80;;
5303;SDS011;2674;49.722;10.892;2023-03-14T00:40:57;0.87;;;0.87;;
5303;SDS011;2674;49.722;10.892;2023-03-14T00:43:23;0.83;;;0.83;;
5303;SDS011;2674;49.722;10.892;2023-03-14T00:45:50;0.80;;;0.80;;
5303;SDS011;2674;49.722;10.892;2023-03-14T00:48:17;0.80;;;0.63;;
5303;SDS011;2674;49.722;10.892;2023-03-14T00:50:43;1.40;;;1.00;;
5303;SDS011;2674;49.722;10.892;2023-03-14T00:53:09;0.80;;;0.80;;
5303;SDS011;2674;49.722;10.892;2023-03-14T00:55:36;0.80;;;0.80;;
5303;SDS011;2674;49.722;10.892;2023-03-14T00:58:02;0.83;;;0.83;;
5303;SDS011;2674;49.722;10.892;2023-03-14T01:00:28;0.60;;;0.60;;
5303;SDS011;2674;49.722;10.892;2023-03-14T01:02:54;0.60;;;0.60;;
5303;SDS011;2674;49.722;10.892;2023-03-14T01:05:21;0.60;;;0.60;;
5303;SDS011;2674;49.722;10.892;2023-03-14T01:07:48;0.73;;;0.70;;
5303;SDS011;2674;49.722;10.892;2023-03-14T01:10:13;0.90;;;0.90;;
5303;SDS011;2674;49.722;10.892;2023-03-14T01:12:40;0.70;;;0.70;;
5303;SDS011;2674;49.722;10.892;2023-03-14T01:15:06;0.70;;;0.70;;
5303;SDS011;2674;49.722;10.892;2023-03-14T01:17:32;1.00;;;1.00;;
5303;SDS011;2674;49.722;10.892;2023-03-14T01:19:59;0.90;;;0.90;;
5303;SDS011;2674;49.722;10.892;2023-03-14T01:22:25;0.97;;;0.80;;
5303;SDS011;2674;49.722;10.892;2023-03-14T01:24:51;0.90;;;0.90;;
5303;SDS011;2674;49.722;10.892;2023-03-14T01:27:17;2.00;;;0.70;;
5303;SDS011;2674;49.722;10.892;2023-03-14T01:29:43;1.10;;;1.10;;
5303;SDS011;2674;49.722;10.892;2023-03-14T01:32:09;1.10;;;1.10;;
5303;SDS011;2674;49.722;10.892;2023-03-14T01:34:34;0.80;;;0.80;;
5303;SDS011;2674;49.722;10.892;2023-03-14T01:37:00;0.80;;;0.80;;
5303;SDS011;2674;49.722;10.892;2023-03-14T01:39:26;0.90;;;0.90;;
5303;SDS011;2674;49.722;10.892;2023-03-14T01:41:53;0.77;;;0.77;;
5303;SDS011;2674;49.722;10.892;2023-03-14T01:44:19;0.70;;;0.70;;
5303;SDS011;2674;49.722;10.892;2023-03-14T01:46:45;0.70;;;0.70;;
5303;SDS011;2674;49.722;10.892;2023-03-14T01:49:22;0.70;;;0.70;;
5303;SDS011;2674;49.722;10.892;2023-03-14T01:54:36;0.63;;;0.63;;
5303;SDS011;2674;49.722;10.892;2023-03-14T02:02:44;3.17;;;0.70;;
5303;SDS011;2674;49.722;10.892;2023-03-14T02:05:12;1.07;;;1.07;;
5303;SDS011;2674;49.722;10.892;2023-03-14T02:07:45;0.97;;;0.97;;
5303;SDS011;2674;49.722;10.892;2023-03-14T02:10:12;0.57;;;0.57;;
5303;SDS011;2674;49.722;10.892;2023-03-14T02:12:39;0.77;;;0.73;;
5303;SDS011;2674;49.722;10.892;2023-03-14T02:15:06;1.10;;;1.10;;
5303;SDS011;2674;49.722;10.892;2023-03-14T02:17:32;0.70;;;0.70;;
5303;SDS011;2674;49.722;10.892;2023-03-14T02:22:51;0.90;;;0.90;;
5303;SDS011;2674;49.722;10.892;2023-03-14T02:28:25;1.83;;;0.87;;
5303;SDS011;2674;49.722;10.892;2023-03-14T02:30:51;0.90;;;0.90;;
5303;SDS011;2674;49.722;10.892;2023-03-14T02:33:17;0.97;;;0.73;;
5303;SDS011;2674;49.722;10.892;2023-03-14T02:41:15;2.53;;;0.80;;
5303;SDS011;2674;49.722;10.892;2023-03-14T02:43:42;0.60;;;0.60;;
5303;SDS011;2674;49.722;10.892;2023-03-14T02:46:08;0.60;;;0.60;;
5303;SDS011;2674;49.722;10.892;2023-03-14T02:51:37;0.70;;;0.70;;
5303;SDS011;2674;49.722;10.892;2023-03-14T02:54:05;0.90;;;0.90;;
5303;SDS011;2674;49.722;10.892;2023-03-14T02:56:31;1.07;;;0.90;;
5303;SDS011;2674;49.722;10.892;2023-03-14T02:58:57;0.87;;;0.80;;
5303;SDS011;2674;49.722;10.892;2023-03-14T03:01:23;0.83;;;0.83;;
5303;SDS011;2674;49.722;10.892;2023-03-14T03:03:49;0.70;;;0.70;;
5303;SDS011;2674;49.722;10.892;2023-03-14T03:06:15;1.03;;;1.03;;
5303;SDS011;2674;49.722;10.892;2023-03-14T03:08:41;4.47;;;0.90;;
5303;SDS011;2674;49.722;10.892;2023-03-14T03:11:09;0.80;;;0.80;;
5303;SDS011;2674;49.722;10.892;2023-03-14T03:13:35;0.90;;;0.90;;
5303;SDS011;2674;49.722;10.892;2023-03-14T03:16:01;0.80;;;0.80;;
5303;SDS011;2674;49.722;10.892;2023-03-14T03:18:27;0.90;;;0.90;;
5303;SDS011;2674;49.722;10.892;2023-03-14T03:20:53;0.83;;;0.83;;
5303;SDS011;2674;49.722;10.892;2023-03-14T03:23:19;5.13;;;0.90;;
5303;SDS011;2674;49.722;10.892;2023-03-14T03:25:48;0.70;;;0.70;;
5303;SDS011;2674;49.722;10.892;2023-03-14T03:28:15;0.93;;;0.93;;
5303;SDS011;2674;49.722;10.892;2023-03-14T03:30:41;1.80;;;0.90;;
5303;SDS011;2674;49.722;10.892;2023-03-14T03:33:08;1.10;;;1.00;;
5303;SDS011;2674;49.722;10.892;2023-03-14T03:35:34;2.60;;;0.87;;
5303;SDS011;2674;49.722;10.892;2023-03-14T03:38:06;0.67;;;0.67;;
5303;SDS011;2674;49.722;10.892;2023-03-14T03:40:32;0.80;;;0.80;;
5303;SDS011;2674;49.722;10.892;2023-03-14T03:42:57;0.60;;;0.60;;
5303;SDS011;2674;49.722;10.892;2023-03-14T03:45:23;0.80;;;0.80;;
5303;SDS011;2674;49.722;10.892;2023-03-14T03:47:49;0.63;;;0.63;;
5303;SDS011;2674;49.722;10.892;2023-03-14T03:50:15;0.80;;;0.80;;
5303;SDS011;2674;49.722;10.892;2023-03-14T03:52:41;0.50;;;0.50;;
5303;SDS011;2674;49.722;10.892;2023-03-14T03:55:07;1.13;;;0.80;;
5303;SDS011;2674;49.722;10.892;2023-03-14T03:57:33;0.70;;;0.70;;
5303;SDS011;2674;49.722;10.892;2023-03-14T03:59:59;1.73;;;0.87;;
5303;SDS011;2674;49.722;10.892;2023-03-14T04:02:25;1.00;;;1.00;;
5303;SDS011;2674;49.722;10.892;2023-03-14T04:04:50;1.40;;;0.90;;
5303;SDS011;2674;49.722;10.892;2023-03-14T04:07:16;0.60;;;0.60;;
5303;SDS011;2674;49.722;10.892;2023-03-14T04:09:42;0.60;;;0.60;;
5303;SDS011;2674;49.722;10.892;2023-03-14T04:12:08;1.73;;;0.63;;
5303;SDS011;2674;49.722;10.892;2023-03-14T04:14:36;0.80;;;0.80;;
5303;SDS011;2674;49.722;10.892;2023-03-14T04:17:01;1.10;;;1.10;;
5303;SDS011;2674;49.722;10.892;2023-03-14T04:19:27;0.80;;;0.80;;
5303;SDS011;2674;49.722;10.892;2023-03-14T04:21:53;0.70;;;0.70;;
5303;SDS011;2674;49.722;10.892;2023-03-14T04:24:19;1.00;;;0.90;;
5303;SDS011;2674;49.722;10.892;2023-03-14T04:26:45;0.70;;;0.70;;
5303;SDS011;2674;49.722;10.892;2023-03-14T04:29:11;0.83;;;0.83;;
5303;SDS011;2674;49.722;10.892;2023-03-14T04:31:36;1.17;;;0.97;;
5303;SDS011;2674;49.722;10.892;2023-03-14T04:34:03;1.10;;;1.10;;
5303;SDS011;2674;49.722;10.892;2023-03-14T04:36:28;0.77;;;0.77;;
5303;SDS011;2674;49.722;10.892;2023-03-14T04:38:54;1.00;;;0.90;;
5303;SDS011;2674;49.722;10.892;2023-03-14T04:41:20;0.70;;;0.70;;
5303;SDS011;2674;49.722;10.892;2023-03-14T04:43:46;2.13;;;0.67;;
5303;SDS011;2674;49.722;10.892;2023-03-14T04:46:12;0.97;;;0.97;;
5303;SDS011;2674;49.722;10.892;2023-03-14T04:48:37;0.60;;;0.60;;
5303;SDS011;2674;49.722;10.892;2023-03-14T04:51:03;0.93;;;0.93;;
5303;SDS011;2674;49.722;10.892;2023-03-14T04:53:30;0.90;;;0.90;;
5303;SDS011;2674;49.722;10.892;2023-03-14T04:55:55;0.87;;;0.87;;
5303;SDS011;2674;49.722;10.892;2023-03-14T04:58:22;0.60;;;0.60;;
5303;SDS011;2674;49.722;10.892;2023-03-14T05:00:49;1.03;;;1.03;;
5303;SDS011;2674;49.722;10.892;2023-03-14T05:03:16;0.73;;;0.73;;
5303;SDS011;2674;49.722;10.892;2023-03-14T05:05:43;0.67;;;0.67;;
5303;SDS011;2674;49.722;10.892;2023-03-14T05:08:09;1.00;;;1.00;;
5303;SDS011;2674;49.722;10.892;2023-03-14T05:10:35;2.53;;;1.20;;
5303;SDS011;2674;49.722;10.892;2023-03-14T05:13:02;1.07;;;1.07;;
5303;SDS011;2674;49.722;10.892;2023-03-14T05:15:28;1.17;;;1.10;;
5303;SDS011;2674;49.722;10.892;2023-03-14T05:17:54;1.00;;;1.00;;
5303;SDS011;2674;49.722;10.892;2023-03-14T05:20:20;4.00;;;1.20;;
5303;SDS011;2674;49.722;10.892;2023-03-14T05:22:46;1.20;;;1.10;;
5303;SDS011;2674;49.722;10.892;2023-03-14T05:25:12;1.20;;;1.20;;
5303;SDS011;2674;49.722;10.892;2023-03-14T05:27:38;1.87;;;1.00;;
5303;SDS011;2674;49.722;10.892;2023-03-14T05:30:05;0.70;;;0.70;;
5303;SDS011;2674;49.722;10.892;2023-03-14T05:32:31;0.80;;;0.80;;
5303;SDS011;2674;49.722;10.892;2023-03-14T05:34:57;0.80;;;0.70;;
5303;SDS011;2674;49.722;10.892;2023-03-14T05:37:27;1.20;;;1.10;;
5303;SDS011;2674;49.722;10.892;2023-03-14T05:39:53;1.07;;;1.00;;
5303;SDS011;2674;49.722;10.892;2023-03-14T05:42:19;1.63;;;1.27;;
5303;SDS011;2674;49.722;10.892;2023-03-14T05:44:44;1.47;;;1.37;;
5303;SDS011;2674;49.722;10.892;2023-03-14T05:47:10;1.97;;;1.77;;
5303;SDS011;2674;49.722;10.892;2023-03-14T05:49:36;1.93;;;1.70;;
5303;SDS011;2674;49.722;10.892;2023-03-14T05:52:02;1.80;;;1.70;;
5303;SDS011;2674;49.722;10.892;2023-03-14T05:54:28;1.37;;;1.37;;
5303;SDS011;2674;49.722;10.892;2023-03-14T05:56:54;1.20;;;1.20;;
5303;SDS011;2674;49.722;10.892;2023-03-14T05:59:20;1.70;;;1.60;;
5303;SDS011;2674;49.722;10.892;2023-03-14T06:01:46;0.93;;;0.87;;
5303;SDS011;2674;49.722;10.892;2023-03-14T06:04:11;1.30;;;1.00;;
5303;SDS011;2674;49.722;10.892;2023-03-14T06:06:38;1.23;;;1.00;;
5303;SDS011;2674;49.722;10.892;2023-03-14T06:09:04;2.17;;;1.23;;
5303;SDS011;2674;49.722;10.892;2023-03-14T06:11:29;1.10;;;1.10;;
5303;SDS011;2674;49.722;10.892;2023-03-14T06:13:55;1.40;;;1.30;;
5303;SDS011;2674;49.722;10.892;2023-03-14T06:16:21;2.60;;;1.33;;
5303;SDS011;2674;49.722;10.892;2023-03-14T06:18:47;0.80;;;0.80;;
5303;SDS011;2674;49.722;10.892;2023-03-14T06:21:14;0.80;;;0.80;;
5303;SDS011;2674;49.722;10.892;2023-03-14T06:23:40;1.10;;;1.00;;
5303;SDS011;2674;49.722;10.892;2023-03-14T06:26:06;1.97;;;1.40;;
5303;SDS011;2674;49.722;10.892;2023-03-14T06:28:32;1.60;;;1.50;;
5303;SDS011;2674;49.722;10.892;2023-03-14T06:30:58;1.20;;;1.20;;
5303;SDS011;2674;49.722;10.892;2023-03-14T06:33:25;1.37;;;1.37;;
5303;SDS011;2674;49.722;10.892;2023-03-14T06:35:51;1.30;;;1.30;;
5303;SDS011;2674;49.722;10.892;2023-03-14T06:38:17;1.73;;;1.63;;
5303;SDS011;2674;49.722;10.892;2023-03-14T06:40:43;2.50;;;1.40;;
5303;SDS011;2674;49.722;10.892;2023-03-14T06:43:09;2.30;;;2.07;;
5303;SDS011;2674;49.722;10.892;2023-03-14T06:45:35;3.10;;;2.53;;
5303;SDS011;2674;49.722;10.892;2023-03-14T06:48:01;2.50;;;2.30;;
5303;SDS011;2674;49.722;10.892;2023-03-14T06:50:26;8.73;;;4.67;;
5303;SDS011;2674;49.722;10.892;2023-03-14T06:52:52;5.70;;;3.07;;
5303;SDS011;2674;49.722;10.892;2023-03-14T06:55:21;1.60;;;1.50;;
5303;SDS011;2674;49.722;10.892;2023-03-14T06:57:47;1.20;;;1.10;;
5303;SDS011;2674;49.722;10.892;2023-03-14T07:00:13;1.63;;;1.27;;
5303;SDS011;2674;49.722;10.892;2023-03-14T07:02:40;1.10;;;1.10;;
5303;SDS011;2674;49.722;10.892;2023-03-14T07:05:06;1.30;;;1.20;;
5303;SDS011;2674;49.722;10.892;2023-03-14T07:07:32;1.07;;;0.97;;
5303;SDS011;2674;49.722;10.892;2023-03-14T07:09:58;3.07;;;1.50;;
5303;SDS011;2674;49.722;10.892;2023-03-14T07:12:23;1.70;;;1.33;;
5303;SDS011;2674;49.722;10.892;2023-03-14T07:14:49;0.90;;;0.90;;
5303;SDS011;2674;49.722;10.892;2023-03-14T07:17:15;4.10;;;0.97;;
5303;SDS011;2674;49.722;10.892;2023-03-14T07:19:41;4.37;;;1.10;;
5303;SDS011;2674;49.722;10.892;2023-03-14T07:22:06;1.67;;;1.10;;
5303;SDS011;2674;49.722;10.892;2023-03-14T07:24:32;0.90;;;0.90;;
5303;SDS011;2674;49.722;10.892;2023-03-14T07:26:58;4.80;;;1.00;;
5303;SDS011;2674;49.722;10.892;2023-03-14T07:29:24;2.20;;;1.07;;
5303;SDS011;2674;49.722;10.892;2023-03-14T07:31:50;2.97;;;1.23;;
5303;SDS011;2674;49.722;10.892;2023-03-14T07:34:15;3.10;;;1.67;;
5303;SDS011;2674;49.722;10.892;2023-03-14T07:36:41;1.30;;;1.20;;
5303;SDS011;2674;49.722;10.892;2023-03-14T07:39:07;1.40;;;1.30;;
5303;SDS011;2674;49.722;10.892;2023-03-14T07:41:33;2.33;;;1.27;;
5303;SDS011;2674;49.722;10.892;2023-03-14T07:44:00;2.73;;;1.60;;
5303;SDS011;2674;49.722;10.892;2023-03-14T07:46:25;2.23;;;1.57;;
5303;SDS011;2674;49.722;10.892;2023-03-14T07:48:51;2.60;;;1.20;;
5303;SDS011;2674;49.722;10.892;2023-03-14T07:51:17;1.87;;;1.53;;
5303;SDS011;2674;49.722;10.892;2023-03-14T07:53:43;5.83;;;1.57;;
5303;SDS011;2674;49.722;10.892;2023-03-14T07:56:09;2.90;;;1.47;;
5303;SDS011;2674;49.722;10.892;2023-03-14T07:58:34;4.27;;;1.30;;
5303;SDS011;2674;49.722;10.892;2023-03-14T08:01:00;5.93;;;1.83;;
5303;SDS011;2674;49.722;10.892;2023-03-14T08:03:26;7.43;;;1.37;;
5303;SDS011;2674;49.722;10.892;2023-03-14T08:05:52;3.27;;;1.00;;
5303;SDS011;2674;49.722;10.892;2023-03-14T08:08:18;3.30;;;1.40;;
5303;SDS011;2674;49.722;10.892;2023-03-14T08:10:45;6.30;;;1.60;;
5303;SDS011;2674;49.722;10.892;2023-03-14T08:13:11;1.63;;;1.13;;
5303;SDS011;2674;49.722;10.892;2023-03-14T08:15:37;3.90;;;1.30;;
5303;SDS011;2674;49.722;10.892;2023-03-14T08:18:03;6.87;;;1.40;;
5303;SDS011;2674;49.722;10.892;2023-03-14T08:20:30;2.00;;;0.90;;
5303;SDS011;2674;49.722;10.892;2023-03-14T08:23:00;7.43;;;1.20;;
5303;SDS011;2674;49.722;10.892;2023-03-14T08:25:26;1.27;;;1.17;;
5303;SDS011;2674;49.722;10.892;2023-03-14T08:27:52;4.20;;;1.37;;
5303;SDS011;2674;49.722;10.892;2023-03-14T08:30:19;1.57;;;0.93;;
5303;SDS011;2674;49.722;10.892;2023-03-14T08:32:46;1.57;;;1.30;;
5303;SDS011;2674;49.722;10.892;2023-03-14T08:35:12;2.47;;;1.20;;
5303;SDS011;2674;49.722;10.892;2023-03-14T08:37:39;4.20;;;1.20;;
5303;SDS011;2674;49.722;10.892;2023-03-14T08:40:06;1.20;;;1.20;;
5303;SDS011;2674;49.722;10.892;2023-03-14T08:42:35;5.53;;;1.40;;
5303;SDS011;2674;49.722;10.892;2023-03-14T08:45:01;3.17;;;1.20;;
5303;SDS011;2674;49.722;10.892;2023-03-14T08:47:27;2.83;;;0.90;;
5303;SDS011;2674;49.722;10.892;2023-03-14T08:49:53;5.60;;;1.30;;
5303;SDS011;2674;49.722;10.892;2023-03-14T08:52:19;1.73;;;1.13;;
5303;SDS011;2674;49.722;10.892;2023-03-14T08:54:45;3.27;;;1.50;;
5303;SDS011;2674;49.722;10.892;2023-03-14T08:57:11;2.10;;;1.10;;
5303;SDS011;2674;49.722;10.892;2023-03-14T08:59:37;3.53;;;1.17;;
5303;SDS011;2674;49.722;10.892;2023-03-14T09:02:03;4.43;;;0.60;;
5303;SDS011;2674;49.722;10.892;2023-03-14T09:04:29;2.87;;;1.20;;
5303;SDS011;2674;49.722;10.892;2023-03-14T09:06:56;1.63;;;1.30;;
5303;SDS011;2674;49.722;10.892;2023-03-14T09:09:23;0.90;;;0.90;;
5303;SDS011;2674;49.722;10.892;2023-03-14T09:11:52;1.83;;;1.03;;
5303;SDS011;2674;49.722;10.892;2023-03-14T09:14:18;1.17;;;1.07;;
5303;SDS011;2674;49.722;10.892;2023-03-14T09:16:44;2.93;;;1.20;;
5303;SDS011;2674;49.722;10.892;2023-03-14T09:19:10;4.00;;;1.00;;
5303;SDS011;2674;49.722;10.892;2023-03-14T09:21:36;0.90;;;0.80;;
5303;SDS011;2674;49.722;10.892;2023-03-14T09:24:03;1.40;;;1.30;;
5303;SDS011;2674;49.722;10.892;2023-03-14T09:26:29;1.10;;;1.10;;
5303;SDS011;2674;49.722;10.892;2023-03-14T09:28:56;1.00;;;0.97;;
5303;SDS011;2674;49.722;10.892;2023-03-14T09:31:22;3.40;;;1.40;;
5303;SDS011;2674;49.722;10.892;2023-03-14T09:33:48;1.47;;;1.20;;
5303;SDS011;2674;49.722;10.892;2023-03-14T09:36:13;3.63;;;1.10;;
5303;SDS011;2674;49.722;10.892;2023-03-14T09:38:39;2.70;;;1.20;;
5303;SDS011;2674;49.722;10.892;2023-03-14T09:41:12;1.10;;;0.90;;
5303;SDS011;2674;49.722;10.892;2023-03-14T09:43:45;2.33;;;1.00;;
5303;SDS011;2674;49.722;10.892;2023-03-14T09:46:16;2.10;;;1.07;;
5303;SDS011;2674;49.722;10.892;2023-03-14T09:48:43;3.23;;;1.00;;
5303;SDS011;2674;49.722;10.892;2023-03-14T09:51:14;4.65;;;0.90;;
5303;SDS011;2674;49.722;10.892;2023-03-14T09:53:45;3.60;;;1.50;;
5303;SDS011;2674;49.722;10.892;2023-03-14T09:56:23;6.17;;;1.43;;
5303;SDS011;2674;49.722;10.892;2023-03-14T09:58:53;7.20;;;2.10;;
5303;SDS011;2674;49.722;10.892;2023-03-14T10:01:24;1.37;;;1.23;;
5303;SDS011;2674;49.722;10.892;2023-03-14T10:03:53;1.07;;;0.90;;
5303;SDS011;2674;49.722;10.892;2023-03-14T10:06:25;0.80;;;0.77;;
5303;SDS011;2674;49.722;10.892;2023-03-14T10:08:53;1.27;;;1.07;;
5303;SDS011;2674;49.722;10.892;2023-03-14T10:11:20;1.17;;;1.07;;
5303;SDS011;2674;49.722;10.892;2023-03-14T10:13:47;1.53;;;1.30;;
5303;SDS011;2674;49.722;10.892;2023-03-14T10:16:38;0.97;;;0.97;;
5303;SDS011;2674;49.722;10.892;2023-03-14T10:19:11;1.27;;;1.20;;
5303;SDS011;2674;49.722;10.892;2023-03-14T10:21:41;2.47;;;1.60;;
5303;SDS011;2674;49.722;10.892;2023-03-14T10:24:33;4.00;;;2.10;;
5303;SDS011;2674;49.722;10.892;2023-03-14T10:27:02;2.97;;;1.37;;
5303;SDS011;2674;49.722;10.892;2023-03-14T10:29:52;1.20;;;1.10;;
5303;SDS011;2674;49.722;10.892;2023-03-14T10:32:21;1.37;;;1.27;;
5303;SDS011;2674;49.722;10.892;2023-03-14T10:35:11;2.70;;;1.30;;
5303;SDS011;2674;49.722;10.892;2023-03-14T10:38:03;1.53;;;1.43;;
5303;SDS011;2674;49.722;10.892;2023-03-14T10:40:31;5.13;;;1.10;;
5303;SDS011;2674;49.722;10.892;2023-03-14T10:43:03;1.20;;;1.10;;
5303;SDS011;2674;49.722;10.892;2023-03-14T10:45:43;1.63;;;1.40;;
5303;SDS011;2674;49.722;10.892;2023-03-14T10:48:22;4.30;;;1.80;;
5303;SDS011;2674;49.722;10.892;2023-03-14T10:53:33;5.50;;;1.00;;
5303;SDS011;2674;49.722;10.892;2023-03-14T10:56:05;1.30;;;1.00;;
5303;SDS011;2674;49.722;10.892;2023-03-14T10:58:40;3.07;;;0.70;;
5303;SDS011;2674;49.722;10.892;2023-03-14T11:03:50;3.23;;;1.20;;
5303;SDS011;2674;49.722;10.892;2023-03-14T11:11:30;1.70;;;1.50;;
5303;SDS011;2674;49.722;10.892;2023-03-14T11:33:02;1.13;;;1.13;;
5303;SDS011;2674;49.722;10.892;2023-03-14T11:35:40;1.97;;;0.63;;
5303;SDS011;2674;49.722;10.892;2023-03-14T11:40:53;0.90;;;0.90;;
5303;SDS011;2674;49.722;10.892;2023-03-14T11:43:38;0.60;;;0.60;;
5303;SDS011;2674;49.722;10.892;2023-03-14T11:51:34;2.63;;;2.37;;
5303;SDS011;2674;49.722;10.892;2023-03-14T11:59:20;1.90;;;0.80;;
5303;SDS011;2674;49.722;10.892;2023-03-14T12:01:54;1.00;;;1.00;;
5303;SDS011;2674;49.722;10.892;2023-03-14T12:04:41;1.70;;;1.00;;
5303;SDS011;2674;49.722;10.892;2023-03-14T12:07:20;1.73;;;0.83;;
5303;SDS011;2674;49.722;10.892;2023-03-14T12:09:53;0.77;;;0.77;;
5303;SDS011;2674;49.722;10.892;2023-03-14T12:12:21;1.10;;;1.00;;
5303;SDS011;2674;49.722;10.892;2023-03-14T12:14:54;0.87;;;0.87;;
5303;SDS011;2674;49.722;10.892;2023-03-14T12:17:27;1.90;;;0.83;;
5303;SDS011;2674;49.722;10.892;2023-03-14T12:20:00;0.87;;;0.87;;
5303;SDS011;2674;49.722;10.892;2023-03-14T12:22:56;1.10;;;1.10;;
5303;SDS011;2674;49.722;10.892;2023-03-14T12:25:31;0.60;;;0.60;;
5303;SDS011;2674;49.722;10.892;2023-03-14T12:29:11;1.13;;;0.90;;
5303;SDS011;2674;49.722;10.892;2023-03-14T12:30:56;1.03;;;1.03;;
5303;SDS011;2674;49.722;10.892;2023-03-14T12:33:42;1.20;;;1.20;;
5303;SDS011;2674;49.722;10.892;2023-03-14T12:36:12;1.00;;;1.00;;
5303;SDS011;2674;49.722;10.892;2023-03-14T12:39:06;2.77;;;1.30;;
5303;SDS011;2674;49.722;10.892;2023-03-14T12:41:43;1.03;;;1.03;;
5303;SDS011;2674;49.722;10.892;2023-03-14T12:49:52;1.30;;;1.10;;
5303;SDS011;2674;49.722;10.892;2023-03-14T12:52:28;1.27;;;1.17;;
5303;SDS011;2674;49.722;10.892;2023-03-14T12:57:58;1.00;;;1.00;;
5303;SDS011;2674;49.722;10.892;2023-03-14T13:00:40;0.90;;;0.90;;
5303;SDS011;2674;49.722;10.892;2023-03-14T13:03:20;0.70;;;0.70;;
5303;SDS011;2674;49.722;10.892;2023-03-14T13:08:35;0.60;;;0.60;;
5303;SDS011;2674;49.722;10.892;2023-03-14T13:11:20;1.10;;;1.00;;
5303;SDS011;2674;49.722;10.892;2023-03-14T13:13:48;1.00;;;1.00;;
5303;SDS011;2674;49.722;10.892;2023-03-14T13:16:19;0.80;;;0.80;;
5303;SDS011;2674;49.722;10.892;2023-03-14T13:18:47;0.67;;;0.67;;
5303;SDS011;2674;49.722;10.892;2023-03-14T13:21:18;1.00;;;1.00;;
5303;SDS011;2674;49.722;10.892;2023-03-14T13:26:22;2.83;;;1.00;;
5303;SDS011;2674;49.722;10.892;2023-03-14T13:28:50;2.00;;;1.50;;
5303;SDS011;2674;49.722;10.892;2023-03-14T13:31:21;2.10;;;1.17;;
5303;SDS011;2674;49.722;10.892;2023-03-14T13:33:57;1.73;;;1.63;;
5303;SDS011;2674;49.722;10.892;2023-03-14T13:36:27;3.43;;;1.50;;
5303;SDS011;2674;49.722;10.892;2023-03-14T13:38:58;4.60;;;1.20;;
5303;SDS011;2674;49.722;10.892;2023-03-14T13:41:25;1.17;;;1.07;;
5303;SDS011;2674;49.722;10.892;2023-03-14T13:43:51;0.70;;;0.70;;
5303;SDS011;2674;49.722;10.892;2023-03-14T13:46:26;0.70;;;0.70;;
5303;SDS011;2674;49.722;10.892;2023-03-14T13:48:57;1.00;;;1.00;;
5303;SDS011;2674;49.722;10.892;2023-03-14T13:51:26;0.90;;;0.90;;
5303;SDS011;2674;49.722;10.892;2023-03-14T13:53:56;1.40;;;1.30;;
5303;SDS011;2674;49.722;10.892;2023-03-14T13:56:25;1.33;;;1.33;;
5303;SDS011;2674;49.722;10.892;2023-03-14T13:58:52;0.80;;;0.80;;
5303;SDS011;2674;49.722;10.892;2023-03-14T14:03:56;1.77;;;0.90;;
5303;SDS011;2674;49.722;10.892;2023-03-14T14:08:53;1.07;;;0.97;;
5303;SDS011;2674;49.722;10.892;2023-03-14T14:11:35;1.20;;;1.13;;
5303;SDS011;2674;49.722;10.892;2023-03-14T14:14:09;1.47;;;1.17;;
5303;SDS011;2674;49.722;10.892;2023-03-14T14:17:02;1.73;;;1.03;;
5303;SDS011;2674;49.722;10.892;2023-03-14T14:19:33;1.20;;;1.10;;
5303;SDS011;2674;49.722;10.892;2023-03-14T14:22:05;0.80;;;0.80;;
5303;SDS011;2674;49.722;10.892;2023-03-14T14:24:33;1.17;;;1.07;;
5303;SDS011;2674;49.722;10.892;2023-03-14T14:27:28;1.10;;;1.10;;
5303;SDS011;2674;49.722;10.892;2023-03-14T14:30:06;4.77;;;1.10;;
5303;SDS011;2674;49.722;10.892;2023-03-14T14:33:18;0.90;;;0.90;;
5303;SDS011;2674;49.722;10.892;2023-03-14T14:35:52;1.83;;;0.83;;
5303;SDS011;2674;49.722;10.892;2023-03-14T14:38:25;3.13;;;1.00;;
5303;SDS011;2674;49.722;10.892;2023-03-14T14:40:52;0.87;;;0.87;;
5303;SDS011;2674;49.722;10.892;2023-03-14T14:43:22;0.90;;;0.90;;
5303;SDS011;2674;49.722;10.892;2023-03-14T14:45:51;1.07;;;1.07;;
5303;SDS011;2674;49.722;10.892;2023-03-14T14:48:20;2.73;;;1.07;;
5303;SDS011;2674;49.722;10.892;2023-03-14T14:55:45;1.00;;;1.00;;
5303;SDS011;2674;49.722;10.892;2023-03-14T14:58:18;1.10;;;1.10;;
5303;SDS011;2674;49.722;10.892;2023-03-14T15:00:56;1.33;;;0.90;;
5303;SDS011;2674;49.722;10.892;2023-03-14T15:03:33;4.13;;;0.70;;
5303;SDS011;2674;49.722;10.892;2023-03-14T15:06:01;1.30;;;1.20;;
5303;SDS011;2674;49.722;10.892;2023-03-14T15:08:28;1.37;;;1.07;;
5303;SDS011;2674;49.722;10.892;2023-03-14T15:10:54;1.10;;;1.10;;
5303;SDS011;2674;49.722;10.892;2023-03-14T15:13:21;5.00;;;1.13;;
5303;SDS011;2674;49.722;10.892;2023-03-14T15:15:47;0.90;;;0.90;;
5303;SDS011;2674;49.722;10.892;2023-03-14T15:18:20;0.77;;;0.77;;
5303;SDS011;2674;49.722;10.892;2023-03-14T15:20:48;1.27;;;1.27;;
5303;SDS011;2674;49.722;10.892;2023-03-14T15:23:15;1.90;;;0.97;;
5303;SDS011;2674;49.722;10.892;2023-03-14T15:25:43;0.90;;;0.90;;
5303;SDS011;2674;49.722;10.892;2023-03-14T15:28:14;1.00;;;1.00;;
5303;SDS011;2674;49.722;10.892;2023-03-14T15:30:52;1.10;;;1.10;;
5303;SDS011;2674;49.722;10.892;2023-03-14T15:33:20;1.07;;;1.07;;
5303;SDS011;2674;49.722;10.892;2023-03-14T15:35:46;1.60;;;1.17;;
5303;SDS011;2674;49.722;10.892;2023-03-14T15:38:15;1.00;;;1.00;;
5303;SDS011;2674;49.722;10.892;2023-03-14T15:40:44;2.00;;;0.80;;
5303;SDS011;2674;49.722;10.892;2023-03-14T15:43:10;1.00;;;1.00;;
5303;SDS011;2674;49.722;10.892;2023-03-14T15:45:36;0.70;;;0.70;;
5303;SDS011;2674;49.722;10.892;2023-03-14T15:48:02;0.70;;;0.70;;
5303;SDS011;2674;49.722;10.892;2023-03-14T15:50:29;4.20;;;0.90;;
5303;SDS011;2674;49.722;10.892;2023-03-14T15:52:54;4.93;;;0.77;;
5303;SDS011;2674;49.722;10.892;2023-03-14T15:55:21;1.17;;;0.70;;
5303;SDS011;2674;49.722;10.892;2023-03-14T15:57:47;0.90;;;0.90;;
5303;SDS011;2674;49.722;10.892;2023-03-14T16:00:15;1.10;;;1.07;;
5303;SDS011;2674;49.722;10.892;2023-03-14T16:02:43;1.07;;;1.07;;
5303;SDS011;2674;49.722;10.892;2023-03-14T16:05:10;1.30;;;1.20;;
5303;SDS011;2674;49.722;10.892;2023-03-14T16:07:37;2.17;;;1.63;;
5303;SDS011;2674;49.722;10.892;2023-03-14T16:10:03;0.90;;;0.90;;
5303;SDS011;2674;49.722;10.892;2023-03-14T16:12:30;1.00;;;1.00;;
5303;SDS011;2674;49.722;10.892;2023-03-14T16:14:57;1.10;;;1.10;;
5303;SDS011;2674;49.722;10.892;2023-03-14T16:17:23;1.17;;;1.17;;
5303;SDS011;2674;49.722;10.892;2023-03-14T16:19:49;1.03;;;1.03;;
5303;SDS011;2674;49.722;10.892;2023-03-14T16:22:15;0.90;;;0.90;;
5303;SDS011;2674;49.722;10.892;2023-03-14T16:24:41;0.80;;;0.80;;
5303;SDS011;2674;49.722;10.892;2023-03-14T16:27:07;1.10;;;1.00;;
5303;SDS011;2674;49.722;10.892;2023-03-14T16:29:33;1.10;;;1.00;;
5303;SDS011;2674;49.722;10.892;2023-03-14T16:31:59;1.23;;;0.90;;
5303;SDS011;2674;49.722;10.892;2023-03-14T16:34:24;1.83;;;1.20;;
5303;SDS011;2674;49.722;10.892;2023-03-14T16:36:50;1.80;;;1.70;;
5303;SDS011;2674;49.722;10.892;2023-03-14T16:39:16;1.90;;;1.80;;